Time;durP1;ratioP1;P1;durP2;ratioP2;P2;SDS_P1;SDS_P2;PMS_P1;PMS_P2;Temp;Humidity;BMP_temperature;BMP_pressure;BME280_temperature;BME280_humidity;BME280_pressure;Samples;Min_cycle;Max_cycle;Signal;HPM_P1;HPM_P2
2022/09/29 00:01:24;;;;;;;8.07;3.95;;;9.10;99.90;;;;;;5069208;28;20040;-60
2022/09/29 00:03:49;;;;;;;8.32;4.13;;;9.00;99.90;;;;;;5070701;28;20032;-57
2022/09/29 00:06:17;;;;;;;9.23;4.05;;;8.90;99.90;;;;;;5068086;28;20040;-59
2022/09/29 00:08:43;;;;;;;9.88;4.22;;;8.90;99.90;;;;;;5068657;28;20039;-57
2022/09/29 00:11:10;;;;;;;6.97;4.25;;;8.80;99.90;;;;;;5066627;28;20052;-59
2022/09/29 00:13:35;;;;;;;6.40;3.60;;;8.80;99.90;;;;;;5068498;28;20029;-59
2022/09/29 00:16:02;;;;;;;9.93;3.47;;;8.80;99.90;;;;;;5068203;28;20047;-60
2022/09/29 00:18:29;;;;;;;7.32;3.92;;;8.70;99.90;;;;;;5064678;28;20032;-60
2022/09/29 00:20:56;;;;;;;11.73;4.10;;;8.60;99.90;;;;;;5069805;28;20060;-58
2022/09/29 00:23:25;;;;;;;15.73;4.22;;;8.50;99.90;;;;;;5067822;28;20061;-60
2022/09/29 00:26:09;;;;;;;8.73;4.13;;;8.40;99.90;;;;;;5068695;28;20024;-59
2022/09/29 00:28:37;;;;;;;9.98;5.18;;;8.40;99.90;;;;;;5063898;28;20493;-59
2022/09/29 00:31:04;;;;;;;5.20;3.92;;;8.30;99.90;;;;;;5065783;28;20023;-60
2022/09/29 00:33:34;;;;;;;10.15;3.80;;;8.30;99.90;;;;;;5066627;28;20039;-59
2022/09/29 00:36:07;;;;;;;7.20;4.60;;;8.20;99.90;;;;;;5069834;28;20032;-57
2022/09/29 00:38:34;;;;;;;10.57;4.07;;;8.10;99.90;;;;;;5067449;28;20082;-59
2022/09/29 00:41:00;;;;;;;8.25;4.35;;;8.10;99.90;;;;;;5069990;28;20024;-58
2022/09/29 00:44:14;;;;;;;6.63;4.43;;;8.00;99.90;;;;;;5069127;28;20085;-60
2022/09/29 00:46:42;;;;;;;5.97;4.55;;;8.10;99.90;;;;;;5031376;28;20076;-60
2022/09/29 00:49:35;;;;;;;5.45;4.03;;;8.10;99.90;;;;;;5067983;28;20490;-59
2022/09/29 00:52:11;;;;;;;7.05;3.65;;;8.20;99.90;;;;;;5067585;28;20482;-57
2022/09/29 00:55:07;;;;;;;5.38;3.72;;;8.10;99.90;;;;;;5068749;28;20033;-59
2022/09/29 00:57:37;;;;;;;6.97;4.25;;;8.00;99.90;;;;;;5065243;28;20494;-59
2022/09/29 01:00:07;;;;;;;9.65;4.30;;;8.00;99.90;;;;;;5065170;28;20478;-58
2022/09/29 01:02:36;;;;;;;8.88;3.65;;;8.10;99.90;;;;;;5068837;28;20383;-57
2022/09/29 01:05:06;;;;;;;6.30;3.95;;;8.00;99.90;;;;;;5069530;28;20020;-59
2022/09/29 01:07:32;;;;;;;7.40;4.53;;;7.80;99.90;;;;;;5068129;28;20039;-58
2022/09/29 01:09:59;;;;;;;6.75;3.75;;;7.80;99.90;;;;;;5069446;28;20041;-59
2022/09/29 01:12:25;;;;;;;5.25;4.07;;;7.70;99.90;;;;;;5069876;28;20046;-58
2022/09/29 01:14:53;;;;;;;8.55;4.63;;;7.60;99.90;;;;;;5069900;28;20021;-60
2022/09/29 01:17:19;;;;;;;7.25;4.43;;;7.50;99.90;;;;;;5068939;28;20079;-58
2022/09/29 01:20:01;;;;;;;10.95;5.28;;;7.50;99.90;;;;;;5069669;28;20082;-58
2022/09/29 01:22:56;;;;;;;11.48;5.18;;;7.40;99.90;;;;;;5068367;28;20457;-59
2022/09/29 01:25:41;;;;;;;8.25;4.75;;;7.30;99.90;;;;;;5073538;28;20486;-58
2022/09/29 01:28:16;;;;;;;16.38;4.85;;;7.30;99.90;;;;;;5071694;28;20478;-59
2022/09/29 01:31:15;;;;;;;7.38;4.72;;;7.20;99.90;;;;;;5071102;28;20024;-60
2022/09/29 01:34:21;;;;;;;10.07;5.45;;;7.20;99.90;;;;;;5068273;28;20118;-59
2022/09/29 01:37:13;;;;;;;10.23;5.05;;;7.20;99.90;;;;;;5030369;28;20018;-59
2022/09/29 01:40:13;;;;;;;7.85;5.07;;;7.30;99.90;;;;;;5066259;28;21794;-58
2022/09/29 01:42:42;;;;;;;7.65;5.03;;;7.20;99.90;;;;;;5071700;28;20056;-58
2022/09/29 01:45:26;;;;;;;10.55;5.25;;;7.30;99.90;;;;;;5070092;28;20528;-60
2022/09/29 01:47:57;;;;;;;11.55;5.15;;;7.30;99.90;;;;;;5071380;28;20032;-59
2022/09/29 01:50:33;;;;;;;7.80;5.00;;;7.30;99.90;;;;;;5073680;28;20029;-59
2022/09/29 01:53:04;;;;;;;7.57;4.65;;;7.20;99.90;;;;;;5073999;28;20043;-59
2022/09/29 01:55:34;;;;;;;8.18;5.05;;;7.20;99.90;;;;;;5073733;28;20101;-59
2022/09/29 01:58:04;;;;;;;9.25;5.53;;;7.20;99.90;;;;;;5073626;28;20024;-59
2022/09/29 02:00:37;;;;;;;6.93;4.72;;;7.20;99.90;;;;;;5073209;28;20398;-59
2022/09/29 02:03:13;;;;;;;8.77;5.28;;;7.10;99.90;;;;;;5073888;28;20063;-58
2022/09/29 02:05:45;;;;;;;8.82;5.30;;;7.00;99.90;;;;;;5072308;28;20051;-58
2022/09/29 02:08:15;;;;;;;7.40;4.60;;;7.00;99.90;;;;;;5068190;28;20055;-59
2022/09/29 02:10:49;;;;;;;6.82;4.80;;;7.00;99.90;;;;;;5063085;28;20117;-59
2022/09/29 02:13:17;;;;;;;9.75;5.38;;;6.90;99.90;;;;;;5066778;28;20206;-59
2022/09/29 02:15:46;;;;;;;6.95;4.40;;;6.90;99.90;;;;;;5066815;28;20372;-59
2022/09/29 02:18:28;;;;;;;14.38;4.65;;;6.90;99.90;;;;;;5067704;28;20029;-60
2022/09/29 02:20:54;;;;;;;5.40;4.40;;;6.90;99.90;;;;;;5066043;28;20040;-60
2022/09/29 02:23:19;;;;;;;9.23;4.55;;;6.80;99.90;;;;;;5068028;28;20152;-58
2022/09/29 02:25:47;;;;;;;8.55;5.00;;;6.80;99.90;;;;;;5067929;28;20028;-59
2022/09/29 02:28:13;;;;;;;9.55;4.85;;;6.70;99.90;;;;;;5066164;28;20032;-59
2022/09/29 02:30:39;;;;;;;11.23;5.65;;;6.70;99.90;;;;;;5065829;28;20023;-58
2022/09/29 02:33:04;;;;;;;8.18;5.57;;;6.70;99.90;;;;;;5066761;28;20479;-58
2022/09/29 02:35:59;;;;;;;11.20;5.18;;;6.60;99.90;;;;;;5060136;28;20512;-60
2022/09/29 02:38:47;;;;;;;9.15;5.35;;;6.60;99.90;;;;;;5059589;28;20036;-59
2022/09/29 02:41:25;;;;;;;12.15;5.55;;;6.60;99.90;;;;;;5064721;28;20086;-59
2022/09/29 02:44:11;;;;;;;8.38;5.50;;;6.60;99.90;;;;;;5062591;28;20517;-60
2022/09/29 02:47:01;;;;;;;9.32;6.07;;;6.50;99.90;;;;;;5063707;28;20024;-59
2022/09/29 02:49:36;;;;;;;11.10;5.90;;;6.50;99.90;;;;;;5063425;28;20052;-59
2022/09/29 02:52:25;;;;;;;9.48;5.35;;;6.60;99.90;;;;;;5068178;28;20086;-59
2022/09/29 02:55:04;;;;;;;11.88;5.93;;;6.60;99.90;;;;;;5068698;28;20050;-59
2022/09/29 02:57:56;;;;;;;10.05;5.53;;;6.70;99.90;;;;;;5066495;28;20021;-60
2022/09/29 03:00:22;;;;;;;8.98;5.45;;;6.60;99.90;;;;;;5071825;28;20105;-59
2022/09/29 03:02:47;;;;;;;8.05;5.50;;;6.60;99.90;;;;;;5072590;28;20104;-60
2022/09/29 03:05:16;;;;;;;10.20;6.50;;;6.60;99.90;;;;;;5071664;28;20107;-56
2022/09/29 03:07:42;;;;;;;11.23;6.25;;;6.50;99.90;;;;;;5067421;28;20028;-58
2022/09/29 03:10:09;;;;;;;9.63;6.38;;;6.50;99.90;;;;;;5070881;28;20024;-59
2022/09/29 03:12:35;;;;;;;9.65;6.10;;;6.50;99.90;;;;;;5066135;28;20071;-56
2022/09/29 03:15:00;;;;;;;14.10;6.22;;;6.50;99.90;;;;;;5072388;28;20494;-60
2022/09/29 03:17:26;;;;;;;13.77;6.95;;;6.50;99.90;;;;;;5072196;28;20028;-60
2022/09/29 03:19:51;;;;;;;13.00;6.57;;;6.50;99.90;;;;;;5070480;28;20028;-60
2022/09/29 03:22:18;;;;;;;11.80;6.40;;;6.40;99.90;;;;;;5067431;28;20074;-60
2022/09/29 03:24:44;;;;;;;10.55;7.18;;;6.30;99.90;;;;;;5070872;28;20027;-57
2022/09/29 03:27:10;;;;;;;10.15;6.38;;;6.40;99.90;;;;;;5070367;28;20032;-60
2022/09/29 03:29:36;;;;;;;14.27;7.63;;;6.30;99.90;;;;;;5071318;28;20391;-59
2022/09/29 03:32:03;;;;;;;12.82;7.05;;;6.30;99.90;;;;;;5069340;28;20122;-60
2022/09/29 03:34:29;;;;;;;12.32;7.57;;;6.30;99.90;;;;;;5071199;28;20213;-57
2022/09/29 03:36:56;;;;;;;15.82;6.82;;;6.40;99.90;;;;;;5071630;28;20104;-59
2022/09/29 03:39:22;;;;;;;12.82;6.88;;;6.30;99.90;;;;;;5071695;28;20067;-60
2022/09/29 03:41:48;;;;;;;12.63;7.25;;;6.30;99.90;;;;;;5071827;28;20033;-59
2022/09/29 03:44:14;;;;;;;12.82;7.40;;;6.40;99.90;;;;;;5069257;28;20447;-58
2022/09/29 03:46:40;;;;;;;10.65;7.10;;;6.50;99.90;;;;;;5068786;28;20036;-60
2022/09/29 03:49:05;;;;;;;13.57;7.55;;;6.40;99.90;;;;;;5069637;28;20113;-59
2022/09/29 03:51:31;;;;;;;14.50;8.38;;;6.40;99.90;;;;;;5067116;28;20028;-58
2022/09/29 03:53:56;;;;;;;11.90;7.25;;;6.40;99.90;;;;;;5065587;28;20487;-60
2022/09/29 03:56:22;;;;;;;14.05;7.90;;;6.40;99.90;;;;;;5070509;28;20142;-57
2022/09/29 03:58:48;;;;;;;18.48;7.68;;;6.50;99.90;;;;;;5068445;28;20029;-59
2022/09/29 04:01:13;;;;;;;21.58;7.43;;;6.40;99.90;;;;;;5066946;28;20024;-60
2022/09/29 04:03:38;;;;;;;17.88;7.30;;;6.30;99.90;;;;;;5066908;28;20376;-59
2022/09/29 04:06:04;;;;;;;12.40;7.05;;;6.30;99.90;;;;;;5066620;28;20120;-60
2022/09/29 04:08:30;;;;;;;15.13;7.47;;;6.20;99.90;;;;;;5068514;28;20027;-60
2022/09/29 04:10:55;;;;;;;19.17;7.00;;;6.20;99.90;;;;;;5070105;28;20079;-59
2022/09/29 04:13:21;;;;;;;21.33;6.80;;;6.20;99.90;;;;;;5068443;28;20021;-58
2022/09/29 04:15:49;;;;;;;14.65;7.45;;;6.10;99.90;;;;;;5071190;28;20027;-59
2022/09/29 04:18:15;;;;;;;14.90;8.23;;;6.10;99.90;;;;;;5065404;28;20036;-60
2022/09/29 04:20:40;;;;;;;18.42;10.20;;;6.10;99.90;;;;;;5067522;28;20037;-59
2022/09/29 04:23:06;;;;;;;20.70;8.05;;;6.10;99.90;;;;;;5067602;28;20043;-59
2022/09/29 04:25:32;;;;;;;11.40;6.75;;;6.20;99.90;;;;;;5067974;28;20028;-59
2022/09/29 04:27:58;;;;;;;12.32;7.40;;;6.20;99.90;;;;;;5071313;28;20524;-59
2022/09/29 04:30:24;;;;;;;14.05;7.55;;;6.20;99.90;;;;;;5070564;28;20024;-59
2022/09/29 04:32:49;;;;;;;15.55;7.22;;;6.10;99.90;;;;;;5071054;28;20055;-59
2022/09/29 04:35:15;;;;;;;15.10;7.55;;;6.20;99.90;;;;;;5067989;28;20028;-59
2022/09/29 04:37:40;;;;;;;12.82;6.75;;;6.20;99.90;;;;;;5064352;28;20025;-58
2022/09/29 04:40:06;;;;;;;14.48;7.75;;;6.20;99.90;;;;;;5070860;28;20052;-58
2022/09/29 04:42:32;;;;;;;18.35;8.27;;;6.30;99.90;;;;;;5070600;28;20486;-59
2022/09/29 04:44:57;;;;;;;19.10;8.38;;;6.30;99.90;;;;;;5069982;28;20079;-59
2022/09/29 04:47:23;;;;;;;22.08;9.30;;;6.30;99.90;;;;;;5070628;28;20021;-59
2022/09/29 04:49:48;;;;;;;29.30;9.50;;;6.40;99.90;;;;;;5070940;28;20036;-58
2022/09/29 04:52:14;;;;;;;20.05;8.95;;;6.50;99.90;;;;;;5070164;28;20403;-60
2022/09/29 04:54:40;;;;;;;19.40;9.68;;;6.60;99.90;;;;;;5068671;28;20024;-56
2022/09/29 04:57:06;;;;;;;18.92;9.57;;;6.70;99.90;;;;;;5070681;28;20032;-59
2022/09/29 04:59:32;;;;;;;23.70;10.43;;;6.80;99.90;;;;;;5073008;28;20024;-59
2022/09/29 05:01:57;;;;;;;20.38;10.40;;;6.80;99.90;;;;;;5072020;28;20044;-59
2022/09/29 05:04:23;;;;;;;24.00;10.43;;;6.80;99.90;;;;;;5073533;28;20423;-58
2022/09/29 05:06:49;;;;;;;27.88;11.48;;;6.80;99.90;;;;;;5069488;28;20478;-59
2022/09/29 05:09:14;;;;;;;27.90;12.25;;;7.00;99.90;;;;;;5071911;28;20111;-58
2022/09/29 05:11:40;;;;;;;25.65;12.15;;;7.00;99.90;;;;;;5063969;28;20036;-60
2022/09/29 05:14:06;;;;;;;22.80;11.48;;;7.10;99.90;;;;;;5068646;28;20448;-59
2022/09/29 05:16:31;;;;;;;23.98;11.07;;;7.10;99.90;;;;;;5068328;28;20410;-59
2022/09/29 05:18:57;;;;;;;39.60;14.93;;;7.20;99.90;;;;;;5070856;28;20024;-59
2022/09/29 05:21:23;;;;;;;31.35;12.55;;;7.20;99.90;;;;;;5073077;28;20071;-58
2022/09/29 05:23:49;;;;;;;35.13;12.88;;;7.20;99.90;;;;;;5071299;28;20024;-58
2022/09/29 05:26:15;;;;;;;41.60;13.82;;;7.20;99.90;;;;;;5062772;28;20024;-58
2022/09/29 05:28:45;;;;;;;35.00;13.73;;;7.10;99.90;;;;;;5067341;28;20429;-57
2022/09/29 05:31:12;;;;;;;32.13;12.85;;;7.20;99.90;;;;;;5068244;28;20498;-56
2022/09/29 05:33:38;;;;;;;39.15;14.18;;;7.20;99.90;;;;;;5067534;28;20449;-59
2022/09/29 05:36:08;;;;;;;29.33;12.60;;;7.20;99.90;;;;;;5062413;28;20068;-58
2022/09/29 05:38:35;;;;;;;38.40;13.15;;;7.20;99.90;;;;;;5095371;22;20885;-61
2022/09/29 05:41:06;;;;;;;27.67;11.60;;;7.20;99.90;;;;;;5084336;28;20060;-63
2022/09/29 05:43:31;;;;;;;34.75;13.15;;;7.30;99.90;;;;;;5091377;28;20032;-61
2022/09/29 05:46:01;;;;;;;29.25;13.38;;;7.30;99.90;;;;;;5091935;28;20028;-62
2022/09/29 05:48:29;;;;;;;32.40;12.65;;;7.20;99.90;;;;;;5088840;28;20026;-61
2022/09/29 05:50:58;;;;;;;29.25;14.40;;;7.20;99.90;;;;;;5072636;28;20028;-61
2022/09/29 05:53:24;;;;;;;25.52;11.38;;;7.20;99.90;;;;;;5087651;28;20035;-61
2022/09/29 05:55:50;;;;;;;28.20;13.32;;;7.30;99.90;;;;;;5080383;28;20051;-62
2022/09/29 05:58:16;;;;;;;32.25;12.55;;;7.20;99.90;;;;;;5091911;28;20067;-62
2022/09/29 06:00:42;;;;;;;58.03;13.65;;;7.20;99.90;;;;;;5076971;28;20032;-58
2022/09/29 06:03:07;;;;;;;31.92;12.45;;;7.10;99.90;;;;;;5070907;28;20025;-60
2022/09/29 06:05:37;;;;;;;23.55;11.23;;;7.20;99.90;;;;;;5071375;28;20028;-59
2022/09/29 06:08:03;;;;;;;36.25;12.10;;;7.20;99.90;;;;;;5071999;28;20192;-62
2022/09/29 06:10:29;;;;;;;21.23;10.48;;;7.30;99.90;;;;;;5091503;28;20031;-64
2022/09/29 06:12:55;;;;;;;34.92;11.80;;;7.30;99.90;;;;;;5071049;28;20040;-60
2022/09/29 06:15:21;;;;;;;26.52;11.88;;;7.30;99.90;;;;;;5071912;28;20013;-61
2022/09/29 06:17:53;;;;;;;29.25;12.57;;;7.30;99.90;;;;;;5071200;28;20434;-59
2022/09/29 06:20:18;;;;;;;24.40;12.00;;;7.30;99.90;;;;;;5067684;28;20056;-59
2022/09/29 06:22:44;;;;;;;34.95;12.52;;;7.30;99.90;;;;;;5070103;28;20067;-59
2022/09/29 06:25:10;;;;;;;39.30;12.60;;;7.40;99.90;;;;;;5071972;28;20056;-60
2022/09/29 06:27:35;;;;;;;35.50;12.75;;;7.40;99.90;;;;;;5072250;28;20056;-59
2022/09/29 06:30:01;;;;;;;33.47;13.40;;;7.40;99.90;;;;;;5072022;28;20025;-61
2022/09/29 06:32:26;;;;;;;26.25;12.35;;;7.30;99.90;;;;;;5071514;28;20031;-59
2022/09/29 06:37:38;;;;;;;27.38;13.02;;;7.50;99.90;;;;;;5091669;28;20035;-62
2022/09/29 06:40:09;;;;;;;35.85;14.93;;;7.50;99.90;;;;;;5090237;28;20417;-60
2022/09/29 06:42:35;;;;;;;41.42;17.30;;;7.50;99.90;;;;;;5091775;28;20107;-61
2022/09/29 06:45:00;;;;;;;33.92;16.02;;;7.60;99.90;;;;;;5086534;28;20127;-61
2022/09/29 06:47:26;;;;;;;34.53;14.23;;;7.70;99.90;;;;;;5083368;28;20034;-61
2022/09/29 06:49:51;;;;;;;31.23;14.50;;;7.70;99.90;;;;;;5090221;28;20474;-62
2022/09/29 06:52:18;;;;;;;33.08;14.50;;;7.70;99.90;;;;;;5091563;28;20020;-62
2022/09/29 06:54:43;;;;;;;32.78;14.25;;;7.70;99.90;;;;;;5092043;28;20023;-61
2022/09/29 06:57:09;;;;;;;34.67;15.35;;;7.80;99.90;;;;;;5091213;28;20016;-59
2022/09/29 06:59:35;;;;;;;36.10;13.68;;;7.90;99.90;;;;;;5088194;28;20028;-60
2022/09/29 07:02:00;;;;;;;44.15;13.98;;;8.00;99.90;;;;;;5080104;28;20054;-56
2022/09/29 07:04:26;;;;;;;37.25;15.20;;;7.90;99.90;;;;;;5081352;28;20040;-60
2022/09/29 07:06:51;;;;;;;38.95;13.60;;;7.90;99.90;;;;;;5091109;28;20028;-60
2022/09/29 07:09:18;;;;;;;32.65;14.68;;;7.80;99.90;;;;;;5091081;28;20030;-60
2022/09/29 07:11:45;;;;;;;36.60;15.18;;;7.90;99.90;;;;;;5090587;28;20027;-59
2022/09/29 07:14:21;;;;;;;56.42;16.38;;;7.80;99.90;;;;;;5090920;28;20393;-61
2022/09/29 07:16:47;;;;;;;43.30;15.25;;;7.70;99.90;;;;;;5082843;28;20039;-61
2022/09/29 07:19:13;;;;;;;37.30;15.88;;;7.70;99.90;;;;;;5082221;28;20037;-62
2022/09/29 07:21:39;;;;;;;40.95;17.73;;;7.80;99.90;;;;;;5085448;28;20448;-60
2022/09/29 07:24:05;;;;;;;41.63;17.52;;;7.90;99.90;;;;;;5091370;28;20024;-60
2022/09/29 07:26:30;;;;;;;53.38;18.77;;;8.00;99.90;;;;;;5090607;28;20103;-61
2022/09/29 07:28:56;;;;;;;44.40;18.60;;;7.90;99.90;;;;;;5090438;28;20458;-62
2022/09/29 07:31:22;;;;;;;62.58;20.17;;;8.00;99.90;;;;;;5063279;28;20032;-61
2022/09/29 07:33:49;;;;;;;49.20;21.05;;;7.90;99.90;;;;;;5089654;28;20486;-61
2022/09/29 07:36:16;;;;;;;52.75;20.27;;;8.00;99.90;;;;;;5086284;28;20029;-62
2022/09/29 07:38:45;;;;;;;55.47;21.13;;;8.00;99.90;;;;;;5089903;28;20024;-60
2022/09/29 07:41:10;;;;;;;63.40;22.77;;;8.20;99.90;;;;;;5091131;28;20047;-61
2022/09/29 07:43:37;;;;;;;55.42;20.98;;;8.30;99.90;;;;;;5090722;28;20063;-61
2022/09/29 07:46:03;;;;;;;56.80;22.35;;;8.50;99.90;;;;;;5083901;28;20391;-61
2022/09/29 07:48:30;;;;;;;54.35;21.40;;;8.40;99.90;;;;;;5089053;28;20056;-59
2022/09/29 07:51:03;;;;;;;59.47;22.52;;;8.40;99.90;;;;;;5089152;28;20052;-61
2022/09/29 07:53:29;;;;;;;59.42;23.88;;;8.50;99.90;;;;;;5086817;28;20378;-58
2022/09/29 07:55:55;;;;;;;52.65;21.00;;;8.60;99.90;;;;;;5073329;28;20016;-60
2022/09/29 07:58:20;;;;;;;57.38;21.15;;;8.50;99.90;;;;;;5073333;28;20032;-62
2022/09/29 08:00:53;;;;;;;49.40;19.75;;;8.50;99.90;;;;;;5069785;28;20454;-60
2022/09/29 08:03:18;;;;;;;50.88;21.52;;;8.60;99.90;;;;;;5067359;28;20440;-62
2022/09/29 08:05:44;;;;;;;56.83;22.55;;;8.70;99.90;;;;;;5070219;28;20029;-61
2022/09/29 08:08:09;;;;;;;55.60;24.05;;;8.80;99.90;;;;;;5069880;28;20039;-62
2022/09/29 08:10:35;;;;;;;60.22;26.05;;;9.00;99.90;;;;;;5081194;28;20028;-61
2022/09/29 08:13:00;;;;;;;61.22;24.60;;;9.00;99.90;;;;;;5089636;28;20047;-62
2022/09/29 08:15:26;;;;;;;60.83;25.17;;;9.10;99.90;;;;;;5089841;28;20066;-61
2022/09/29 08:17:53;;;;;;;53.25;23.00;;;9.10;99.90;;;;;;5087001;28;20058;-62
2022/09/29 08:20:19;;;;;;;61.50;22.80;;;9.10;99.90;;;;;;5089892;28;20023;-62
2022/09/29 08:22:45;;;;;;;60.90;25.17;;;9.10;99.90;;;;;;5090041;28;20150;-62
2022/09/29 08:25:11;;;;;;;63.15;25.73;;;9.20;99.90;;;;;;5082645;28;20020;-60
2022/09/29 08:27:36;;;;;;;66.10;24.13;;;9.10;99.90;;;;;;5087874;28;20587;-62
2022/09/29 08:30:03;;;;;;;70.97;26.20;;;9.20;99.90;;;;;;5089880;28;20035;-63
2022/09/29 08:32:28;;;;;;;62.15;23.88;;;9.40;99.90;;;;;;5083549;28;20107;-62
2022/09/29 08:34:54;;;;;;;62.13;24.67;;;9.30;99.90;;;;;;5086508;28;20106;-59
2022/09/29 08:37:19;;;;;;;62.55;26.00;;;9.30;99.90;;;;;;5089657;28;20028;-61
2022/09/29 08:39:45;;;;;;;67.88;27.05;;;9.40;99.90;;;;;;5089785;28;20036;-61
2022/09/29 08:42:37;;;;;;;68.85;27.13;;;9.40;99.90;;;;;;5078444;28;20546;-59
2022/09/29 08:45:07;;;;;;;63.20;24.73;;;9.40;99.90;;;;;;5070112;28;20510;-61
2022/09/29 08:47:49;;;;;;;62.75;26.95;;;9.50;99.90;;;;;;5076090;28;20032;-58
2022/09/29 08:50:32;;;;;;;68.35;26.05;;;9.70;99.90;;;;;;5089645;28;20119;-59
2022/09/29 08:53:01;;;;;;;61.15;25.55;;;9.80;99.90;;;;;;5090005;28;20156;-61
2022/09/29 08:55:36;;;;;;;58.63;24.60;;;9.80;99.90;;;;;;5078629;28;20032;-61
2022/09/29 08:58:02;;;;;;;61.97;26.98;;;9.90;99.90;;;;;;5089957;28;20027;-62
2022/09/29 09:00:50;;;;;;;66.82;26.00;;;10.00;99.90;;;;;;5090361;28;20040;-60
2022/09/29 09:03:24;;;;;;;67.53;27.67;;;10.20;99.90;;;;;;5072617;28;20047;-59
2022/09/29 09:06:00;;;;;;;68.47;26.45;;;10.10;99.90;;;;;;5089284;28;20028;-59
2022/09/29 09:09:16;;;;;;;58.95;25.95;;;10.20;99.90;;;;;;5085860;28;20874;-59
2022/09/29 09:11:47;;;;;;;56.95;24.85;;;10.20;99.90;;;;;;5041933;28;20051;-60
2022/09/29 09:14:38;;;;;;;64.43;26.63;;;10.30;99.90;;;;;;5070168;28;20028;-60
2022/09/29 09:17:34;;;;;;;59.00;26.17;;;10.40;99.90;;;;;;5069020;28;20056;-57
2022/09/29 09:20:12;;;;;;;60.53;25.88;;;10.50;99.90;;;;;;5069947;28;20028;-61
2022/09/29 09:22:48;;;;;;;49.20;24.80;;;10.60;99.90;;;;;;5070110;28;20017;-61
2022/09/29 09:25:32;;;;;;;57.65;25.17;;;10.70;99.90;;;;;;5070342;28;20491;-63
2022/09/29 09:28:18;;;;;;;49.33;24.52;;;10.70;99.90;;;;;;5069444;28;20082;-62
2022/09/29 09:30:55;;;;;;;52.05;24.77;;;10.70;99.90;;;;;;5069699;28;20028;-61
2022/09/29 09:33:36;;;;;;;50.10;24.77;;;10.90;99.90;;;;;;5079659;28;20031;-60
2022/09/29 09:36:29;;;;;;;50.35;24.23;;;10.90;99.90;;;;;;5076017;28;20024;-61
2022/09/29 09:39:24;;;;;;;43.63;22.77;;;11.10;99.90;;;;;;5062411;28;20043;-62
2022/09/29 09:41:53;;;;;;;46.70;22.42;;;11.20;99.90;;;;;;5056461;28;20039;-62
2022/09/29 09:44:24;;;;;;;49.03;22.60;;;11.30;99.90;;;;;;5077217;28;20075;-62
2022/09/29 09:47:17;;;;;;;41.25;21.05;;;11.20;99.90;;;;;;5072506;28;20024;-62
2022/09/29 09:49:49;;;;;;;44.40;22.38;;;11.30;99.90;;;;;;5069546;28;20038;-62
2022/09/29 09:52:22;;;;;;;47.53;23.17;;;11.50;99.90;;;;;;5072977;28;20082;-62
2022/09/29 09:54:56;;;;;;;45.97;22.20;;;11.70;99.90;;;;;;5089674;28;20109;-62
2022/09/29 09:57:28;;;;;;;47.38;22.45;;;11.70;99.90;;;;;;5092884;28;20042;-62
2022/09/29 10:00:17;;;;;;;41.45;20.38;;;11.90;99.90;;;;;;5081592;28;20037;-61
2022/09/29 10:02:50;;;;;;;42.20;19.25;;;12.10;99.90;;;;;;5085760;28;20485;-61
2022/09/29 10:05:23;;;;;;;41.08;19.80;;;12.20;99.90;;;;;;5092090;28;20032;-59
2022/09/29 10:07:50;;;;;;;35.00;19.58;;;12.40;99.90;;;;;;5092489;28;20020;-59
2022/09/29 10:10:21;;;;;;;37.60;17.77;;;12.60;99.90;;;;;;5086768;28;20032;-59
2022/09/29 10:12:55;;;;;;;33.65;19.38;;;12.80;99.90;;;;;;5092881;28;20051;-61
2022/09/29 10:15:30;;;;;;;34.50;17.92;;;13.00;99.90;;;;;;5077465;28;20052;-58
2022/09/29 10:18:10;;;;;;;26.25;15.02;;;13.20;99.90;;;;;;5080512;28;20505;-61
2022/09/29 10:20:37;;;;;;;21.75;12.65;;;13.30;99.90;;;;;;5092256;28;20028;-60
2022/09/29 10:23:25;;;;;;;20.77;11.68;;;13.30;99.90;;;;;;5092280;28;20028;-60
2022/09/29 10:25:57;;;;;;;19.95;11.23;;;13.50;99.90;;;;;;5066513;28;20035;-59
2022/09/29 10:28:25;;;;;;;23.95;11.07;;;13.60;99.90;;;;;;5072904;28;20028;-60
2022/09/29 10:30:53;;;;;;;17.63;10.10;;;13.70;99.90;;;;;;5078331;28;20486;-59
2022/09/29 10:33:21;;;;;;;20.80;11.00;;;13.70;99.90;;;;;;5091288;28;20024;-61
2022/09/29 10:35:51;;;;;;;20.40;9.55;;;13.80;99.90;;;;;;5094137;28;20023;-61
2022/09/29 10:38:22;;;;;;;17.85;9.10;;;14.00;99.90;;;;;;5091850;28;20180;-62
2022/09/29 10:41:06;;;;;;;15.07;10.40;;;14.20;99.90;;;;;;5090241;28;20024;-58
2022/09/29 10:43:40;;;;;;;13.63;8.57;;;14.40;99.90;;;;;;5086289;28;20485;-61
2022/09/29 10:46:36;;;;;;;11.52;6.80;;;14.30;99.90;;;;;;5086114;28;20024;-61
2022/09/29 10:49:17;;;;;;;13.90;8.35;;;14.40;99.90;;;;;;5090291;28;20095;-60
2022/09/29 10:52:04;;;;;;;11.40;6.72;;;14.50;99.90;;;;;;5090288;28;20020;-59
2022/09/29 10:54:39;;;;;;;11.93;5.78;;;14.70;99.90;;;;;;5090200;28;20016;-62
2022/09/29 10:57:15;;;;;;;8.63;5.72;;;14.90;99.90;;;;;;5088603;28;20051;-59
2022/09/29 10:59:48;;;;;;;9.90;5.95;;;14.80;99.90;;;;;;5083119;28;20024;-58
2022/09/29 11:02:34;;;;;;;10.07;5.93;;;14.80;99.90;;;;;;5068790;28;20028;-58
2022/09/29 11:05:02;;;;;;;14.35;5.28;;;15.10;99.90;;;;;;5070580;28;20032;-58
2022/09/29 11:07:30;;;;;;;15.57;4.85;;;15.30;99.90;;;;;;5061042;28;20514;-59
2022/09/29 11:09:56;;;;;;;10.02;5.25;;;15.40;99.90;;;;;;5069207;28;20274;-62
2022/09/29 11:12:33;;;;;;;9.38;4.70;;;15.60;99.90;;;;;;5074159;28;20482;-61
2022/09/29 11:15:00;;;;;;;9.18;4.72;;;15.90;99.90;;;;;;5063989;28;20028;-62
2022/09/29 11:17:29;;;;;;;8.90;4.78;;;16.10;99.90;;;;;;5065498;28;20074;-60
2022/09/29 11:20:01;;;;;;;11.90;4.97;;;16.40;99.90;;;;;;5068863;28;20101;-61
2022/09/29 11:22:47;;;;;;;7.13;4.55;;;16.60;99.90;;;;;;5066842;28;20090;-60
2022/09/29 11:25:42;;;;;;;8.48;4.43;;;16.60;99.90;;;;;;5060332;28;20024;-60
2022/09/29 11:28:25;;;;;;;;;;;16.20;99.90;;;;;;5068657;28;20498;-62
2022/09/29 11:31:15;;;;;;;3.63;3.17;;;16.20;99.90;;;;;;5078570;28;19938;-62
2022/09/29 11:34:11;;;;;;;7.60;3.20;;;16.40;99.90;;;;;;5067891;28;20039;-62
2022/09/29 11:37:05;;;;;;;11.73;3.20;;;16.80;99.90;;;;;;5063142;28;20025;-61
2022/09/29 11:40:00;;;;;;;8.15;3.45;;;17.10;99.90;;;;;;5063531;28;20036;-63
2022/09/29 11:42:54;;;;;;;12.82;3.22;;;17.30;99.90;;;;;;5056595;28;20041;-62
2022/09/29 11:45:28;;;;;;;12.80;3.40;;;17.00;99.90;;;;;;5067254;28;20098;-62
2022/09/29 11:48:32;;;;;;;5.90;2.45;;;16.20;99.90;;;;;;5069704;28;20036;-63
2022/09/29 11:51:43;;;;;;;5.75;2.65;;;16.10;99.90;;;;;;5051555;28;20167;-63
2022/09/29 11:54:47;;;;;;;6.03;2.85;;;16.20;99.90;;;;;;5065549;28;20032;-60
2022/09/29 11:57:32;;;;;;;8.15;2.42;;;15.90;99.90;;;;;;5082701;28;20412;-63
2022/09/29 12:00:16;;;;;;;3.22;2.00;;;15.40;99.90;;;;;;5066865;28;20036;-64
2022/09/29 12:03:02;;;;;;;3.47;1.90;;;15.30;99.90;;;;;;5072834;28;20021;-62
2022/09/29 12:05:53;;;;;;;5.20;2.33;;;15.10;99.90;;;;;;5070938;28;20440;-64
2022/09/29 12:08:18;;;;;;;3.25;2.10;;;15.10;99.90;;;;;;5063116;28;20035;-60
2022/09/29 12:11:05;;;;;;;2.40;1.42;;;14.80;99.90;;;;;;5064751;28;20029;-62
2022/09/29 12:13:52;;;;;;;4.22;1.67;;;14.40;99.90;;;;;;5060674;28;20040;-61
2022/09/29 12:16:24;;;;;;;4.32;1.45;;;14.40;99.90;;;;;;5064224;28;20029;-60
2022/09/29 12:18:58;;;;;;;3.78;1.77;;;14.30;99.90;;;;;;5064787;28;20861;-59
2022/09/29 12:21:37;;;;;;;3.88;1.88;;;14.40;99.90;;;;;;5077702;28;20039;-62
2022/09/29 12:24:09;;;;;;;1.50;1.30;;;14.40;99.90;;;;;;5068550;28;20032;-61
2022/09/29 12:26:35;;;;;;;4.22;1.30;;;14.40;99.90;;;;;;5067357;28;20028;-61
2022/09/29 12:29:23;;;;;;;6.97;1.45;;;14.40;99.90;;;;;;5070274;28;20031;-61
2022/09/29 12:31:53;;;;;;;2.65;1.75;;;14.40;99.90;;;;;;5061712;28;20402;-62
2022/09/29 12:34:28;;;;;;;3.08;1.15;;;14.50;99.90;;;;;;5069445;28;20024;-62
2022/09/29 12:37:06;;;;;;;3.90;1.33;;;14.60;99.90;;;;;;5062535;28;20032;-59
2022/09/29 12:39:38;;;;;;;3.38;1.48;;;14.70;99.90;;;;;;5069337;28;20029;-59
2022/09/29 12:42:10;;;;;;;3.53;1.00;;;14.90;99.90;;;;;;5070554;28;20413;-61
2022/09/29 12:44:42;;;;;;;4.00;1.35;;;15.30;99.90;;;;;;5068185;28;20039;-59
2022/09/29 12:47:41;;;;;;;5.93;1.40;;;15.70;99.90;;;;;;5068328;28;20107;-62
2022/09/29 12:50:43;;;;;;;2.60;1.15;;;16.30;99.90;;;;;;5074923;28;20082;-63
2022/09/29 12:53:28;;;;;;;3.75;1.40;;;16.30;99.90;;;;;;5066395;28;20024;-59
2022/09/29 12:55:53;;;;;;;;;;;16.20;99.90;;;;;;5066877;28;20105;-64
2022/09/29 12:58:27;;;;;;;4.53;1.08;;;16.10;99.90;;;;;;5076120;28;19916;-59
2022/09/29 13:01:02;;;;;;;4.90;1.15;;;16.40;99.90;;;;;;5074279;28;20111;-62
2022/09/29 13:03:43;;;;;;;2.10;1.30;;;16.60;99.90;;;;;;5074939;28;20079;-62
2022/09/29 13:06:37;;;;;;;7.80;1.13;;;16.60;99.90;;;;;;5067062;28;20051;-61
2022/09/29 13:09:13;;;;;;;4.93;1.50;;;16.80;99.90;;;;;;5063252;28;20094;-60
2022/09/29 13:11:48;;;;;;;3.05;1.20;;;17.30;99.90;;;;;;5065529;28;20673;-62
2022/09/29 13:14:42;;;;;;;2.13;1.15;;;17.10;99.90;;;;;;5058878;28;20043;-64